<?xml version="1.0" encoding="UTF-8" standalone="no" ?>
<gpx xmlns="http://www.topografix.com/GPX/1/1" xmlns:xsi="http://www.w3.org/2001/XMLSchema-instance" xsi:schemaLocation="http://www.topografix.com/GPX/1/1 http://www.topografix.com/GPX/1/1/gpx.xsd" version="1.1" creator="VisuGPX - https://www.visugpx.com">
  <metadata>
    <name>12644443-vercheny cretes du barry</name>
  </metadata>
  <trk>
    <name><![CDATA[12644443-vercheny cretes du barry]]></name>
    <trkseg>
      <trkpt lat="44.71116" lon="5.25121">
        <ele>429</ele>
        <time>2021-03-23T10:34:01Z</time>
      </trkpt>
      <trkpt lat="44.71104" lon="5.25118">
        <ele>429</ele>
        <time>2021-03-23T10:34:17Z</time>
      </trkpt>
      <trkpt lat="44.71101" lon="5.2511">
        <ele>429</ele>
        <time>2021-03-23T10:34:26Z</time>
      </trkpt>
      <trkpt lat="44.71098" lon="5.25078">
        <ele>432</ele>
        <time>2021-03-23T10:34:56Z</time>
      </trkpt>
      <trkpt lat="44.71102" lon="5.25052">
        <ele>433</ele>
        <time>2021-03-23T10:35:22Z</time>
      </trkpt>
      <trkpt lat="44.71093" lon="5.25026">
        <ele>434</ele>
        <time>2021-03-23T10:35:49Z</time>
      </trkpt>
      <trkpt lat="44.71096" lon="5.2499">
        <ele>436</ele>
        <time>2021-03-23T10:36:23Z</time>
      </trkpt>
      <trkpt lat="44.71091" lon="5.24943">
        <ele>434</ele>
        <time>2021-03-23T10:37:09Z</time>
      </trkpt>
      <trkpt lat="44.71095" lon="5.24875">
        <ele>434</ele>
        <time>2021-03-23T10:38:13Z</time>
      </trkpt>
      <trkpt lat="44.71113" lon="5.2482">
        <ele>439</ele>
        <time>2021-03-23T10:39:11Z</time>
      </trkpt>
      <trkpt lat="44.7111" lon="5.24824">
        <ele>438</ele>
        <time>2021-03-23T10:39:16Z</time>
      </trkpt>
      <trkpt lat="44.71115" lon="5.24834">
        <ele>439</ele>
        <time>2021-03-23T10:39:28Z</time>
      </trkpt>
      <trkpt lat="44.71118" lon="5.24832">
        <ele>440</ele>
        <time>2021-03-23T10:39:32Z</time>
      </trkpt>
      <trkpt lat="44.71116" lon="5.24816">
        <ele>440</ele>
        <time>2021-03-23T10:39:48Z</time>
      </trkpt>
      <trkpt lat="44.71127" lon="5.24792">
        <ele>444</ele>
        <time>2021-03-23T10:40:15Z</time>
      </trkpt>
      <trkpt lat="44.71122" lon="5.24787">
        <ele>444</ele>
        <time>2021-03-23T10:40:23Z</time>
      </trkpt>
      <trkpt lat="44.71124" lon="5.24764">
        <ele>446</ele>
        <time>2021-03-23T10:40:45Z</time>
      </trkpt>
      <trkpt lat="44.71189" lon="5.24623">
        <ele>470</ele>
        <time>2021-03-23T10:43:24Z</time>
      </trkpt>
      <trkpt lat="44.71196" lon="5.24616">
        <ele>472</ele>
        <time>2021-03-23T10:43:36Z</time>
      </trkpt>
      <trkpt lat="44.71222" lon="5.24617">
        <ele>475</ele>
        <time>2021-03-23T10:44:10Z</time>
      </trkpt>
      <trkpt lat="44.71278" lon="5.24662">
        <ele>477</ele>
        <time>2021-03-23T10:45:36Z</time>
      </trkpt>
      <trkpt lat="44.71294" lon="5.24663">
        <ele>478</ele>
        <time>2021-03-23T10:45:58Z</time>
      </trkpt>
      <trkpt lat="44.71307" lon="5.24656">
        <ele>479</ele>
        <time>2021-03-23T10:46:16Z</time>
      </trkpt>
      <trkpt lat="44.7131" lon="5.24644">
        <ele>481</ele>
        <time>2021-03-23T10:46:28Z</time>
      </trkpt>
      <trkpt lat="44.71307" lon="5.24631">
        <ele>483</ele>
        <time>2021-03-23T10:46:41Z</time>
      </trkpt>
      <trkpt lat="44.71284" lon="5.24573">
        <ele>487</ele>
        <time>2021-03-23T10:47:44Z</time>
      </trkpt>
      <trkpt lat="44.71261" lon="5.24528">
        <ele>484</ele>
        <time>2021-03-23T10:48:37Z</time>
      </trkpt>
      <trkpt lat="44.71257" lon="5.24502">
        <ele>484</ele>
        <time>2021-03-23T10:49:02Z</time>
      </trkpt>
      <trkpt lat="44.71262" lon="5.24492">
        <ele>482</ele>
        <time>2021-03-23T10:49:14Z</time>
      </trkpt>
      <trkpt lat="44.71284" lon="5.24496">
        <ele>484</ele>
        <time>2021-03-23T10:49:43Z</time>
      </trkpt>
      <trkpt lat="44.71318" lon="5.24514">
        <ele>489</ele>
        <time>2021-03-23T10:50:32Z</time>
      </trkpt>
      <trkpt lat="44.71366" lon="5.2451">
        <ele>497</ele>
        <time>2021-03-23T10:51:36Z</time>
      </trkpt>
      <trkpt lat="44.71403" lon="5.24538">
        <ele>504</ele>
        <time>2021-03-23T10:52:32Z</time>
      </trkpt>
      <trkpt lat="44.71413" lon="5.24537">
        <ele>506</ele>
        <time>2021-03-23T10:52:46Z</time>
      </trkpt>
      <trkpt lat="44.71428" lon="5.24527">
        <ele>511</ele>
        <time>2021-03-23T10:53:08Z</time>
      </trkpt>
      <trkpt lat="44.71429" lon="5.24499">
        <ele>513</ele>
        <time>2021-03-23T10:53:34Z</time>
      </trkpt>
      <trkpt lat="44.71466" lon="5.24469">
        <ele>523</ele>
        <time>2021-03-23T10:54:31Z</time>
      </trkpt>
      <trkpt lat="44.71508" lon="5.24408">
        <ele>539</ele>
        <time>2021-03-23T10:55:52Z</time>
      </trkpt>
      <trkpt lat="44.71514" lon="5.24362">
        <ele>539</ele>
        <time>2021-03-23T10:56:36Z</time>
      </trkpt>
      <trkpt lat="44.71512" lon="5.24339">
        <ele>536</ele>
        <time>2021-03-23T10:56:58Z</time>
      </trkpt>
      <trkpt lat="44.7152" lon="5.24296">
        <ele>534</ele>
        <time>2021-03-23T10:57:40Z</time>
      </trkpt>
      <trkpt lat="44.7154" lon="5.24265">
        <ele>542</ele>
        <time>2021-03-23T10:58:20Z</time>
      </trkpt>
      <trkpt lat="44.71547" lon="5.24229">
        <ele>540</ele>
        <time>2021-03-23T10:58:55Z</time>
      </trkpt>
      <trkpt lat="44.71547" lon="5.24201">
        <ele>535</ele>
        <time>2021-03-23T10:59:22Z</time>
      </trkpt>
      <trkpt lat="44.7157" lon="5.24157">
        <ele>541</ele>
        <time>2021-03-23T11:00:14Z</time>
      </trkpt>
      <trkpt lat="44.71561" lon="5.24131">
        <ele>533</ele>
        <time>2021-03-23T11:00:41Z</time>
      </trkpt>
      <trkpt lat="44.71568" lon="5.24105">
        <ele>534</ele>
        <time>2021-03-23T11:01:08Z</time>
      </trkpt>
      <trkpt lat="44.71568" lon="5.24076">
        <ele>531</ele>
        <time>2021-03-23T11:01:35Z</time>
      </trkpt>
      <trkpt lat="44.71575" lon="5.24061">
        <ele>533</ele>
        <time>2021-03-23T11:01:52Z</time>
      </trkpt>
      <trkpt lat="44.7159" lon="5.24054">
        <ele>539</ele>
        <time>2021-03-23T11:02:13Z</time>
      </trkpt>
      <trkpt lat="44.71601" lon="5.24042">
        <ele>544</ele>
        <time>2021-03-23T11:02:32Z</time>
      </trkpt>
      <trkpt lat="44.71606" lon="5.24021">
        <ele>544</ele>
        <time>2021-03-23T11:02:53Z</time>
      </trkpt>
      <trkpt lat="44.7166" lon="5.23918">
        <ele>564</ele>
        <time>2021-03-23T11:04:54Z</time>
      </trkpt>
      <trkpt lat="44.71664" lon="5.23888">
        <ele>567</ele>
        <time>2021-03-23T11:05:23Z</time>
      </trkpt>
      <trkpt lat="44.71672" lon="5.23864">
        <ele>572</ele>
        <time>2021-03-23T11:05:48Z</time>
      </trkpt>
      <trkpt lat="44.71696" lon="5.23838">
        <ele>583</ele>
        <time>2021-03-23T11:06:29Z</time>
      </trkpt>
      <trkpt lat="44.71742" lon="5.23807">
        <ele>598</ele>
        <time>2021-03-23T11:07:37Z</time>
      </trkpt>
      <trkpt lat="44.71755" lon="5.23785">
        <ele>599</ele>
        <time>2021-03-23T11:08:04Z</time>
      </trkpt>
      <trkpt lat="44.71782" lon="5.2376">
        <ele>603</ele>
        <time>2021-03-23T11:08:47Z</time>
      </trkpt>
      <trkpt lat="44.71809" lon="5.23757">
        <ele>609</ele>
        <time>2021-03-23T11:09:23Z</time>
      </trkpt>
      <trkpt lat="44.71852" lon="5.23734">
        <ele>620</ele>
        <time>2021-03-23T11:10:24Z</time>
      </trkpt>
      <trkpt lat="44.71856" lon="5.23725">
        <ele>622</ele>
        <time>2021-03-23T11:10:34Z</time>
      </trkpt>
      <trkpt lat="44.71826" lon="5.23707">
        <ele>620</ele>
        <time>2021-03-23T11:11:18Z</time>
      </trkpt>
      <trkpt lat="44.71818" lon="5.2369">
        <ele>622</ele>
        <time>2021-03-23T11:11:37Z</time>
      </trkpt>
      <trkpt lat="44.71834" lon="5.23691">
        <ele>624</ele>
        <time>2021-03-23T11:11:59Z</time>
      </trkpt>
      <trkpt lat="44.71841" lon="5.23698">
        <ele>624</ele>
        <time>2021-03-23T11:12:10Z</time>
      </trkpt>
      <trkpt lat="44.71843" lon="5.23694">
        <ele>625</ele>
        <time>2021-03-23T11:12:15Z</time>
      </trkpt>
      <trkpt lat="44.71818" lon="5.23677">
        <ele>624</ele>
        <time>2021-03-23T11:12:52Z</time>
      </trkpt>
      <trkpt lat="44.71792" lon="5.23643">
        <ele>631</ele>
        <time>2021-03-23T11:13:39Z</time>
      </trkpt>
      <trkpt lat="44.71786" lon="5.23643">
        <ele>631</ele>
        <time>2021-03-23T11:13:47Z</time>
      </trkpt>
      <trkpt lat="44.71761" lon="5.23663">
        <ele>621</ele>
        <time>2021-03-23T11:14:26Z</time>
      </trkpt>
      <trkpt lat="44.7175" lon="5.23664">
        <ele>620</ele>
        <time>2021-03-23T11:14:40Z</time>
      </trkpt>
      <trkpt lat="44.71737" lon="5.2366">
        <ele>622</ele>
        <time>2021-03-23T11:14:58Z</time>
      </trkpt>
      <trkpt lat="44.71708" lon="5.23636">
        <ele>633</ele>
        <time>2021-03-23T11:15:43Z</time>
      </trkpt>
      <trkpt lat="44.71682" lon="5.23624">
        <ele>639</ele>
        <time>2021-03-23T11:16:19Z</time>
      </trkpt>
      <trkpt lat="44.71592" lon="5.23617">
        <ele>651</ele>
        <time>2021-03-23T11:18:20Z</time>
      </trkpt>
      <trkpt lat="44.71577" lon="5.2361">
        <ele>655</ele>
        <time>2021-03-23T11:18:41Z</time>
      </trkpt>
      <trkpt lat="44.71562" lon="5.23596">
        <ele>660</ele>
        <time>2021-03-23T11:19:05Z</time>
      </trkpt>
      <trkpt lat="44.71539" lon="5.23588">
        <ele>664</ele>
        <time>2021-03-23T11:19:36Z</time>
      </trkpt>
      <trkpt lat="44.71526" lon="5.23588">
        <ele>665</ele>
        <time>2021-03-23T11:19:54Z</time>
      </trkpt>
      <trkpt lat="44.71484" lon="5.23564">
        <ele>676</ele>
        <time>2021-03-23T11:20:54Z</time>
      </trkpt>
      <trkpt lat="44.71461" lon="5.23558">
        <ele>681</ele>
        <time>2021-03-23T11:21:26Z</time>
      </trkpt>
      <trkpt lat="44.71436" lon="5.23559">
        <ele>683</ele>
        <time>2021-03-23T11:21:59Z</time>
      </trkpt>
      <trkpt lat="44.71424" lon="5.23555">
        <ele>686</ele>
        <time>2021-03-23T11:22:15Z</time>
      </trkpt>
      <trkpt lat="44.71408" lon="5.23558">
        <ele>686</ele>
        <time>2021-03-23T11:22:37Z</time>
      </trkpt>
      <trkpt lat="44.71397" lon="5.2355">
        <ele>690</ele>
        <time>2021-03-23T11:22:53Z</time>
      </trkpt>
      <trkpt lat="44.71375" lon="5.2355">
        <ele>691</ele>
        <time>2021-03-23T11:23:23Z</time>
      </trkpt>
      <trkpt lat="44.71351" lon="5.2354">
        <ele>696</ele>
        <time>2021-03-23T11:23:56Z</time>
      </trkpt>
      <trkpt lat="44.71317" lon="5.23511">
        <ele>707</ele>
        <time>2021-03-23T11:24:49Z</time>
      </trkpt>
      <trkpt lat="44.71265" lon="5.23506">
        <ele>706</ele>
        <time>2021-03-23T11:25:59Z</time>
      </trkpt>
      <trkpt lat="44.71221" lon="5.23468">
        <ele>715</ele>
        <time>2021-03-23T11:27:08Z</time>
      </trkpt>
      <trkpt lat="44.71184" lon="5.23448">
        <ele>718</ele>
        <time>2021-03-23T11:28:01Z</time>
      </trkpt>
      <trkpt lat="44.7112" lon="5.23434">
        <ele>721</ele>
        <time>2021-03-23T11:29:27Z</time>
      </trkpt>
      <trkpt lat="44.71079" lon="5.23413">
        <ele>731</ele>
        <time>2021-03-23T11:30:25Z</time>
      </trkpt>
      <trkpt lat="44.71014" lon="5.23414">
        <ele>726</ele>
        <time>2021-03-23T11:31:52Z</time>
      </trkpt>
      <trkpt lat="44.70976" lon="5.23399">
        <ele>726</ele>
        <time>2021-03-23T11:32:45Z</time>
      </trkpt>
      <trkpt lat="44.70947" lon="5.2337">
        <ele>732</ele>
        <time>2021-03-23T11:33:32Z</time>
      </trkpt>
      <trkpt lat="44.70939" lon="5.23354">
        <ele>738</ele>
        <time>2021-03-23T11:33:51Z</time>
      </trkpt>
      <trkpt lat="44.70938" lon="5.23343">
        <ele>743</ele>
        <time>2021-03-23T11:34:01Z</time>
      </trkpt>
      <trkpt lat="44.70943" lon="5.23344">
        <ele>744</ele>
        <time>2021-03-23T11:34:08Z</time>
      </trkpt>
      <trkpt lat="44.70962" lon="5.23364">
        <ele>739</ele>
        <time>2021-03-23T11:34:40Z</time>
      </trkpt>
      <trkpt lat="44.7101" lon="5.2337">
        <ele>748</ele>
        <time>2021-03-23T11:35:44Z</time>
      </trkpt>
      <trkpt lat="44.71012" lon="5.23373">
        <ele>747</ele>
        <time>2021-03-23T11:35:48Z</time>
      </trkpt>
      <trkpt lat="44.70988" lon="5.23358">
        <ele>750</ele>
        <time>2021-03-23T11:36:23Z</time>
      </trkpt>
      <trkpt lat="44.70945" lon="5.23312">
        <ele>762</ele>
        <time>2021-03-23T11:37:35Z</time>
      </trkpt>
      <trkpt lat="44.70923" lon="5.23295">
        <ele>765</ele>
        <time>2021-03-23T11:38:08Z</time>
      </trkpt>
      <trkpt lat="44.70905" lon="5.233">
        <ele>756</ele>
        <time>2021-03-23T11:38:33Z</time>
      </trkpt>
      <trkpt lat="44.7089" lon="5.23291">
        <ele>756</ele>
        <time>2021-03-23T11:38:55Z</time>
      </trkpt>
      <trkpt lat="44.70799" lon="5.23179">
        <ele>776</ele>
        <time>2021-03-23T11:41:36Z</time>
      </trkpt>
      <trkpt lat="44.70755" lon="5.23141">
        <ele>772</ele>
        <time>2021-03-23T11:42:45Z</time>
      </trkpt>
      <trkpt lat="44.70748" lon="5.23127">
        <ele>772</ele>
        <time>2021-03-23T11:43:01Z</time>
      </trkpt>
      <trkpt lat="44.7075" lon="5.23116">
        <ele>773</ele>
        <time>2021-03-23T11:43:12Z</time>
      </trkpt>
      <trkpt lat="44.70803" lon="5.23132">
        <ele>781</ele>
        <time>2021-03-23T11:44:24Z</time>
      </trkpt>
      <trkpt lat="44.70828" lon="5.23144">
        <ele>786</ele>
        <time>2021-03-23T11:45:00Z</time>
      </trkpt>
      <trkpt lat="44.70873" lon="5.23152">
        <ele>794</ele>
        <time>2021-03-23T11:46:00Z</time>
      </trkpt>
      <trkpt lat="44.70917" lon="5.23144">
        <ele>801</ele>
        <time>2021-03-23T11:46:59Z</time>
      </trkpt>
      <trkpt lat="44.70932" lon="5.23136">
        <ele>802</ele>
        <time>2021-03-23T11:47:21Z</time>
      </trkpt>
      <trkpt lat="44.70977" lon="5.23124">
        <ele>807</ele>
        <time>2021-03-23T11:48:22Z</time>
      </trkpt>
      <trkpt lat="44.71015" lon="5.23099">
        <ele>807</ele>
        <time>2021-03-23T11:49:18Z</time>
      </trkpt>
      <trkpt lat="44.71035" lon="5.23091">
        <ele>808</ele>
        <time>2021-03-23T11:49:45Z</time>
      </trkpt>
      <trkpt lat="44.71077" lon="5.23086">
        <ele>812</ele>
        <time>2021-03-23T11:50:42Z</time>
      </trkpt>
      <trkpt lat="44.71139" lon="5.23098">
        <ele>815</ele>
        <time>2021-03-23T11:52:05Z</time>
      </trkpt>
      <trkpt lat="44.71243" lon="5.23102">
        <ele>817</ele>
        <time>2021-03-23T11:54:24Z</time>
      </trkpt>
      <trkpt lat="44.71337" lon="5.23087">
        <ele>821</ele>
        <time>2021-03-23T11:56:30Z</time>
      </trkpt>
      <trkpt lat="44.71357" lon="5.23076">
        <ele>821</ele>
        <time>2021-03-23T11:56:59Z</time>
      </trkpt>
      <trkpt lat="44.71386" lon="5.23067">
        <ele>825</ele>
        <time>2021-03-23T11:57:39Z</time>
      </trkpt>
      <trkpt lat="44.71409" lon="5.23066">
        <ele>829</ele>
        <time>2021-03-23T11:58:09Z</time>
      </trkpt>
      <trkpt lat="44.71431" lon="5.2307">
        <ele>834</ele>
        <time>2021-03-23T11:58:39Z</time>
      </trkpt>
      <trkpt lat="44.71442" lon="5.23076">
        <ele>837</ele>
        <time>2021-03-23T11:58:55Z</time>
      </trkpt>
      <trkpt lat="44.71442" lon="5.23083">
        <ele>838</ele>
        <time>2021-03-23T11:59:01Z</time>
      </trkpt>
      <trkpt lat="44.71427" lon="5.23111">
        <ele>841</ele>
        <time>2021-03-23T11:59:35Z</time>
      </trkpt>
      <trkpt lat="44.71429" lon="5.23124">
        <ele>843</ele>
        <time>2021-03-23T11:59:47Z</time>
      </trkpt>
      <trkpt lat="44.71443" lon="5.23132">
        <ele>847</ele>
        <time>2021-03-23T12:00:07Z</time>
      </trkpt>
      <trkpt lat="44.71487" lon="5.23134">
        <ele>853</ele>
        <time>2021-03-23T12:01:06Z</time>
      </trkpt>
      <trkpt lat="44.71523" lon="5.23125">
        <ele>856</ele>
        <time>2021-03-23T12:01:55Z</time>
      </trkpt>
      <trkpt lat="44.71569" lon="5.23097">
        <ele>858</ele>
        <time>2021-03-23T12:03:02Z</time>
      </trkpt>
      <trkpt lat="44.71591" lon="5.23088">
        <ele>859</ele>
        <time>2021-03-23T12:03:32Z</time>
      </trkpt>
      <trkpt lat="44.71613" lon="5.2309">
        <ele>859</ele>
        <time>2021-03-23T12:04:02Z</time>
      </trkpt>
      <trkpt lat="44.7164" lon="5.23101">
        <ele>860</ele>
        <time>2021-03-23T12:04:39Z</time>
      </trkpt>
      <trkpt lat="44.71697" lon="5.2307">
        <ele>857</ele>
        <time>2021-03-23T12:06:01Z</time>
      </trkpt>
      <trkpt lat="44.71753" lon="5.2306">
        <ele>854</ele>
        <time>2021-03-23T12:07:16Z</time>
      </trkpt>
      <trkpt lat="44.71771" lon="5.23064">
        <ele>855</ele>
        <time>2021-03-23T12:07:40Z</time>
      </trkpt>
      <trkpt lat="44.71803" lon="5.23081">
        <ele>858</ele>
        <time>2021-03-23T12:08:26Z</time>
      </trkpt>
      <trkpt lat="44.71826" lon="5.23081">
        <ele>859</ele>
        <time>2021-03-23T12:08:57Z</time>
      </trkpt>
      <trkpt lat="44.71874" lon="5.23072">
        <ele>864</ele>
        <time>2021-03-23T12:10:01Z</time>
      </trkpt>
      <trkpt lat="44.71941" lon="5.23081">
        <ele>874</ele>
        <time>2021-03-23T12:11:31Z</time>
      </trkpt>
      <trkpt lat="44.71972" lon="5.2307">
        <ele>874</ele>
        <time>2021-03-23T12:12:14Z</time>
      </trkpt>
      <trkpt lat="44.72003" lon="5.2307">
        <ele>877</ele>
        <time>2021-03-23T12:12:55Z</time>
      </trkpt>
      <trkpt lat="44.72079" lon="5.23089">
        <ele>881</ele>
        <time>2021-03-23T12:14:38Z</time>
      </trkpt>
      <trkpt lat="44.72103" lon="5.23099">
        <ele>882</ele>
        <time>2021-03-23T12:15:12Z</time>
      </trkpt>
      <trkpt lat="44.72137" lon="5.23104">
        <ele>885</ele>
        <time>2021-03-23T12:15:57Z</time>
      </trkpt>
      <trkpt lat="44.72153" lon="5.23083">
        <ele>890</ele>
        <time>2021-03-23T12:16:26Z</time>
      </trkpt>
      <trkpt lat="44.72183" lon="5.23067">
        <ele>891</ele>
        <time>2021-03-23T12:17:09Z</time>
      </trkpt>
      <trkpt lat="44.7221" lon="5.2307">
        <ele>896</ele>
        <time>2021-03-23T12:17:45Z</time>
      </trkpt>
      <trkpt lat="44.72225" lon="5.23077">
        <ele>899</ele>
        <time>2021-03-23T12:18:07Z</time>
      </trkpt>
      <trkpt lat="44.72238" lon="5.23074">
        <ele>901</ele>
        <time>2021-03-23T12:18:24Z</time>
      </trkpt>
      <trkpt lat="44.72247" lon="5.23078">
        <ele>903</ele>
        <time>2021-03-23T12:18:37Z</time>
      </trkpt>
      <trkpt lat="44.72279" lon="5.23074">
        <ele>906</ele>
        <time>2021-03-23T12:19:20Z</time>
      </trkpt>
      <trkpt lat="44.72319" lon="5.23075">
        <ele>911</ele>
        <time>2021-03-23T12:20:13Z</time>
      </trkpt>
      <trkpt lat="44.72348" lon="5.23067">
        <ele>914</ele>
        <time>2021-03-23T12:20:52Z</time>
      </trkpt>
      <trkpt lat="44.72388" lon="5.23038">
        <ele>917</ele>
        <time>2021-03-23T12:21:52Z</time>
      </trkpt>
      <trkpt lat="44.72419" lon="5.23038">
        <ele>921</ele>
        <time>2021-03-23T12:22:34Z</time>
      </trkpt>
      <trkpt lat="44.7246" lon="5.23031">
        <ele>924</ele>
        <time>2021-03-23T12:23:29Z</time>
      </trkpt>
      <trkpt lat="44.72493" lon="5.23036">
        <ele>927</ele>
        <time>2021-03-23T12:24:13Z</time>
      </trkpt>
      <trkpt lat="44.72498" lon="5.2304">
        <ele>927</ele>
        <time>2021-03-23T12:24:21Z</time>
      </trkpt>
      <trkpt lat="44.72488" lon="5.23064">
        <ele>926</ele>
        <time>2021-03-23T12:24:47Z</time>
      </trkpt>
      <trkpt lat="44.72522" lon="5.23122">
        <ele>921</ele>
        <time>2021-03-23T12:25:59Z</time>
      </trkpt>
      <trkpt lat="44.72545" lon="5.23171">
        <ele>911</ele>
        <time>2021-03-23T12:26:54Z</time>
      </trkpt>
      <trkpt lat="44.72641" lon="5.23254">
        <ele>922</ele>
        <time>2021-03-23T12:29:25Z</time>
      </trkpt>
      <trkpt lat="44.72677" lon="5.233">
        <ele>925</ele>
        <time>2021-03-23T12:30:29Z</time>
      </trkpt>
      <trkpt lat="44.72702" lon="5.23317">
        <ele>932</ele>
        <time>2021-03-23T12:31:07Z</time>
      </trkpt>
      <trkpt lat="44.72715" lon="5.23337">
        <ele>933</ele>
        <time>2021-03-23T12:31:32Z</time>
      </trkpt>
      <trkpt lat="44.72745" lon="5.2337">
        <ele>938</ele>
        <time>2021-03-23T12:32:23Z</time>
      </trkpt>
      <trkpt lat="44.72787" lon="5.23432">
        <ele>947</ele>
        <time>2021-03-23T12:33:44Z</time>
      </trkpt>
      <trkpt lat="44.72808" lon="5.23483">
        <ele>952</ele>
        <time>2021-03-23T12:34:40Z</time>
      </trkpt>
      <trkpt lat="44.72823" lon="5.23501">
        <ele>957</ele>
        <time>2021-03-23T12:35:06Z</time>
      </trkpt>
      <trkpt lat="44.72822" lon="5.23515">
        <ele>959</ele>
        <time>2021-03-23T12:35:20Z</time>
      </trkpt>
      <trkpt lat="44.72788" lon="5.23583">
        <ele>956</ele>
        <time>2021-03-23T12:36:39Z</time>
      </trkpt>
      <trkpt lat="44.7278" lon="5.23616">
        <ele>965</ele>
        <time>2021-03-23T12:37:12Z</time>
      </trkpt>
      <trkpt lat="44.72766" lon="5.23632">
        <ele>965</ele>
        <time>2021-03-23T12:37:36Z</time>
      </trkpt>
      <trkpt lat="44.72747" lon="5.23673">
        <ele>970</ele>
        <time>2021-03-23T12:38:22Z</time>
      </trkpt>
      <trkpt lat="44.72683" lon="5.23762">
        <ele>961</ele>
        <time>2021-03-23T12:40:22Z</time>
      </trkpt>
      <trkpt lat="44.72676" lon="5.23788">
        <ele>964</ele>
        <time>2021-03-23T12:40:49Z</time>
      </trkpt>
      <trkpt lat="44.72679" lon="5.23814">
        <ele>973</ele>
        <time>2021-03-23T12:41:14Z</time>
      </trkpt>
      <trkpt lat="44.72676" lon="5.23833">
        <ele>976</ele>
        <time>2021-03-23T12:41:32Z</time>
      </trkpt>
      <trkpt lat="44.72652" lon="5.23885">
        <ele>969</ele>
        <time>2021-03-23T12:42:31Z</time>
      </trkpt>
      <trkpt lat="44.72652" lon="5.23899">
        <ele>970</ele>
        <time>2021-03-23T12:42:44Z</time>
      </trkpt>
      <trkpt lat="44.72683" lon="5.23869">
        <ele>977</ele>
        <time>2021-03-23T12:43:34Z</time>
      </trkpt>
      <trkpt lat="44.72689" lon="5.23848">
        <ele>980</ele>
        <time>2021-03-23T12:43:56Z</time>
      </trkpt>
      <trkpt lat="44.72706" lon="5.23814">
        <ele>984</ele>
        <time>2021-03-23T12:44:35Z</time>
      </trkpt>
      <trkpt lat="44.7271" lon="5.23791">
        <ele>981</ele>
        <time>2021-03-23T12:44:58Z</time>
      </trkpt>
      <trkpt lat="44.72721" lon="5.23775">
        <ele>984</ele>
        <time>2021-03-23T12:45:19Z</time>
      </trkpt>
      <trkpt lat="44.72743" lon="5.2376">
        <ele>993</ele>
        <time>2021-03-23T12:45:51Z</time>
      </trkpt>
      <trkpt lat="44.72761" lon="5.23741">
        <ele>998</ele>
        <time>2021-03-23T12:46:21Z</time>
      </trkpt>
      <trkpt lat="44.72804" lon="5.23714">
        <ele>1009</ele>
        <time>2021-03-23T12:47:24Z</time>
      </trkpt>
      <trkpt lat="44.72842" lon="5.23693">
        <ele>1018</ele>
        <time>2021-03-23T12:48:19Z</time>
      </trkpt>
      <trkpt lat="44.72852" lon="5.23693">
        <ele>1022</ele>
        <time>2021-03-23T12:48:32Z</time>
      </trkpt>
      <trkpt lat="44.72875" lon="5.23683">
        <ele>1028</ele>
        <time>2021-03-23T12:49:04Z</time>
      </trkpt>
      <trkpt lat="44.72896" lon="5.23661">
        <ele>1031</ele>
        <time>2021-03-23T12:49:39Z</time>
      </trkpt>
      <trkpt lat="44.72903" lon="5.2366">
        <ele>1033</ele>
        <time>2021-03-23T12:49:48Z</time>
      </trkpt>
      <trkpt lat="44.72932" lon="5.23633">
        <ele>1037</ele>
        <time>2021-03-23T12:50:35Z</time>
      </trkpt>
      <trkpt lat="44.72938" lon="5.23606">
        <ele>1033</ele>
        <time>2021-03-23T12:51:02Z</time>
      </trkpt>
      <trkpt lat="44.72949" lon="5.23593">
        <ele>1036</ele>
        <time>2021-03-23T12:51:21Z</time>
      </trkpt>
      <trkpt lat="44.72958" lon="5.2357">
        <ele>1037</ele>
        <time>2021-03-23T12:51:46Z</time>
      </trkpt>
      <trkpt lat="44.72971" lon="5.23557">
        <ele>1043</ele>
        <time>2021-03-23T12:52:07Z</time>
      </trkpt>
      <trkpt lat="44.72984" lon="5.23535">
        <ele>1047</ele>
        <time>2021-03-23T12:52:34Z</time>
      </trkpt>
      <trkpt lat="44.73007" lon="5.23482">
        <ele>1057</ele>
        <time>2021-03-23T12:53:33Z</time>
      </trkpt>
      <trkpt lat="44.73017" lon="5.2347">
        <ele>1062</ele>
        <time>2021-03-23T12:53:51Z</time>
      </trkpt>
      <trkpt lat="44.73016" lon="5.23451">
        <ele>1062</ele>
        <time>2021-03-23T12:54:09Z</time>
      </trkpt>
      <trkpt lat="44.73025" lon="5.23392">
        <ele>1068</ele>
        <time>2021-03-23T12:55:06Z</time>
      </trkpt>
      <trkpt lat="44.73022" lon="5.23359">
        <ele>1069</ele>
        <time>2021-03-23T12:55:37Z</time>
      </trkpt>
      <trkpt lat="44.7303" lon="5.23333">
        <ele>1071</ele>
        <time>2021-03-23T12:56:04Z</time>
      </trkpt>
      <trkpt lat="44.73018" lon="5.23311">
        <ele>1066</ele>
        <time>2021-03-23T12:56:31Z</time>
      </trkpt>
      <trkpt lat="44.73004" lon="5.23301">
        <ele>1064</ele>
        <time>2021-03-23T12:56:51Z</time>
      </trkpt>
      <trkpt lat="44.72989" lon="5.23296">
        <ele>1062</ele>
        <time>2021-03-23T12:57:12Z</time>
      </trkpt>
      <trkpt lat="44.72972" lon="5.23302">
        <ele>1061</ele>
        <time>2021-03-23T12:57:35Z</time>
      </trkpt>
      <trkpt lat="44.72951" lon="5.23295">
        <ele>1058</ele>
        <time>2021-03-23T12:58:04Z</time>
      </trkpt>
      <trkpt lat="44.72955" lon="5.23298">
        <ele>1058</ele>
        <time>2021-03-23T12:58:10Z</time>
      </trkpt>
      <trkpt lat="44.72954" lon="5.23292">
        <ele>1059</ele>
        <time>2021-03-23T12:58:16Z</time>
      </trkpt>
      <trkpt lat="44.72968" lon="5.23299">
        <ele>1060</ele>
        <time>2021-03-23T12:58:36Z</time>
      </trkpt>
      <trkpt lat="44.72988" lon="5.23297">
        <ele>1062</ele>
        <time>2021-03-23T12:59:03Z</time>
      </trkpt>
      <trkpt lat="44.73006" lon="5.23301">
        <ele>1064</ele>
        <time>2021-03-23T12:59:27Z</time>
      </trkpt>
      <trkpt lat="44.73025" lon="5.23317">
        <ele>1067</ele>
        <time>2021-03-23T12:59:57Z</time>
      </trkpt>
      <trkpt lat="44.73033" lon="5.23332">
        <ele>1071</ele>
        <time>2021-03-23T13:00:14Z</time>
      </trkpt>
      <trkpt lat="44.73025" lon="5.23346">
        <ele>1070</ele>
        <time>2021-03-23T13:00:31Z</time>
      </trkpt>
      <trkpt lat="44.73022" lon="5.23365">
        <ele>1069</ele>
        <time>2021-03-23T13:00:50Z</time>
      </trkpt>
      <trkpt lat="44.73026" lon="5.23385">
        <ele>1069</ele>
        <time>2021-03-23T13:01:10Z</time>
      </trkpt>
      <trkpt lat="44.73026" lon="5.23421">
        <ele>1067</ele>
        <time>2021-03-23T13:01:44Z</time>
      </trkpt>
      <trkpt lat="44.73018" lon="5.23455">
        <ele>1063</ele>
        <time>2021-03-23T13:02:18Z</time>
      </trkpt>
      <trkpt lat="44.73018" lon="5.23476">
        <ele>1062</ele>
        <time>2021-03-23T13:02:38Z</time>
      </trkpt>
      <trkpt lat="44.72995" lon="5.23519">
        <ele>1052</ele>
        <time>2021-03-23T13:03:29Z</time>
      </trkpt>
      <trkpt lat="44.72988" lon="5.23541">
        <ele>1050</ele>
        <time>2021-03-23T13:03:51Z</time>
      </trkpt>
      <trkpt lat="44.72978" lon="5.23552">
        <ele>1046</ele>
        <time>2021-03-23T13:04:08Z</time>
      </trkpt>
      <trkpt lat="44.72958" lon="5.23592">
        <ele>1040</ele>
        <time>2021-03-23T13:04:55Z</time>
      </trkpt>
      <trkpt lat="44.72944" lon="5.2361">
        <ele>1037</ele>
        <time>2021-03-23T13:05:20Z</time>
      </trkpt>
      <trkpt lat="44.7294" lon="5.23639">
        <ele>1042</ele>
        <time>2021-03-23T13:05:48Z</time>
      </trkpt>
      <trkpt lat="44.72927" lon="5.23647">
        <ele>1039</ele>
        <time>2021-03-23T13:06:07Z</time>
      </trkpt>
      <trkpt lat="44.72898" lon="5.23681">
        <ele>1036</ele>
        <time>2021-03-23T13:06:57Z</time>
      </trkpt>
      <trkpt lat="44.72873" lon="5.237">
        <ele>1032</ele>
        <time>2021-03-23T13:07:35Z</time>
      </trkpt>
      <trkpt lat="44.72809" lon="5.2372">
        <ele>1013</ele>
        <time>2021-03-23T13:09:03Z</time>
      </trkpt>
      <trkpt lat="44.72784" lon="5.23737">
        <ele>1008</ele>
        <time>2021-03-23T13:09:40Z</time>
      </trkpt>
      <trkpt lat="44.72761" lon="5.23746">
        <ele>1000</ele>
        <time>2021-03-23T13:10:12Z</time>
      </trkpt>
      <trkpt lat="44.72719" lon="5.23784">
        <ele>984</ele>
        <time>2021-03-23T13:11:18Z</time>
      </trkpt>
      <trkpt lat="44.72713" lon="5.23794">
        <ele>983</ele>
        <time>2021-03-23T13:11:31Z</time>
      </trkpt>
      <trkpt lat="44.72706" lon="5.23823">
        <ele>986</ele>
        <time>2021-03-23T13:12:00Z</time>
      </trkpt>
      <trkpt lat="44.72682" lon="5.23874">
        <ele>976</ele>
        <time>2021-03-23T13:12:58Z</time>
      </trkpt>
      <trkpt lat="44.72658" lon="5.23896">
        <ele>971</ele>
        <time>2021-03-23T13:13:36Z</time>
      </trkpt>
      <trkpt lat="44.72649" lon="5.23897">
        <ele>969</ele>
        <time>2021-03-23T13:13:48Z</time>
      </trkpt>
      <trkpt lat="44.72614" lon="5.2392">
        <ele>967</ele>
        <time>2021-03-23T13:14:40Z</time>
      </trkpt>
      <trkpt lat="44.72593" lon="5.23927">
        <ele>964</ele>
        <time>2021-03-23T13:15:08Z</time>
      </trkpt>
      <trkpt lat="44.72575" lon="5.23939">
        <ele>961</ele>
        <time>2021-03-23T13:15:35Z</time>
      </trkpt>
      <trkpt lat="44.72554" lon="5.23961">
        <ele>956</ele>
        <time>2021-03-23T13:16:10Z</time>
      </trkpt>
      <trkpt lat="44.72518" lon="5.24072">
        <ele>946</ele>
        <time>2021-03-23T13:18:06Z</time>
      </trkpt>
      <trkpt lat="44.72499" lon="5.24111">
        <ele>942</ele>
        <time>2021-03-23T13:18:50Z</time>
      </trkpt>
      <trkpt lat="44.72493" lon="5.24205">
        <ele>935</ele>
        <time>2021-03-23T13:20:20Z</time>
      </trkpt>
      <trkpt lat="44.72498" lon="5.24231">
        <ele>937</ele>
        <time>2021-03-23T13:20:45Z</time>
      </trkpt>
      <trkpt lat="44.72493" lon="5.24255">
        <ele>935</ele>
        <time>2021-03-23T13:21:09Z</time>
      </trkpt>
      <trkpt lat="44.72502" lon="5.24273">
        <ele>936</ele>
        <time>2021-03-23T13:21:30Z</time>
      </trkpt>
      <trkpt lat="44.72503" lon="5.2429">
        <ele>935</ele>
        <time>2021-03-23T13:21:46Z</time>
      </trkpt>
      <trkpt lat="44.72495" lon="5.24309">
        <ele>933</ele>
        <time>2021-03-23T13:22:07Z</time>
      </trkpt>
      <trkpt lat="44.72474" lon="5.24333">
        <ele>922</ele>
        <time>2021-03-23T13:22:43Z</time>
      </trkpt>
      <trkpt lat="44.72469" lon="5.24344">
        <ele>913</ele>
        <time>2021-03-23T13:22:56Z</time>
      </trkpt>
      <trkpt lat="44.72461" lon="5.2435">
        <ele>906</ele>
        <time>2021-03-23T13:23:08Z</time>
      </trkpt>
      <trkpt lat="44.72455" lon="5.24345">
        <ele>906</ele>
        <time>2021-03-23T13:23:17Z</time>
      </trkpt>
      <trkpt lat="44.7246" lon="5.24347">
        <ele>907</ele>
        <time>2021-03-23T13:23:24Z</time>
      </trkpt>
      <trkpt lat="44.72469" lon="5.24343">
        <ele>913</ele>
        <time>2021-03-23T13:23:36Z</time>
      </trkpt>
      <trkpt lat="44.72476" lon="5.24329">
        <ele>923</ele>
        <time>2021-03-23T13:23:53Z</time>
      </trkpt>
      <trkpt lat="44.72485" lon="5.24324">
        <ele>928</ele>
        <time>2021-03-23T13:24:06Z</time>
      </trkpt>
      <trkpt lat="44.72501" lon="5.24295">
        <ele>936</ele>
        <time>2021-03-23T13:24:40Z</time>
      </trkpt>
      <trkpt lat="44.72502" lon="5.2428">
        <ele>936</ele>
        <time>2021-03-23T13:24:55Z</time>
      </trkpt>
      <trkpt lat="44.72492" lon="5.24252">
        <ele>935</ele>
        <time>2021-03-23T13:25:24Z</time>
      </trkpt>
      <trkpt lat="44.72496" lon="5.24223">
        <ele>936</ele>
        <time>2021-03-23T13:25:52Z</time>
      </trkpt>
      <trkpt lat="44.72492" lon="5.24211">
        <ele>934</ele>
        <time>2021-03-23T13:26:05Z</time>
      </trkpt>
      <trkpt lat="44.72495" lon="5.24182">
        <ele>935</ele>
        <time>2021-03-23T13:26:33Z</time>
      </trkpt>
      <trkpt lat="44.72491" lon="5.24166">
        <ele>933</ele>
        <time>2021-03-23T13:26:49Z</time>
      </trkpt>
      <trkpt lat="44.72498" lon="5.24133">
        <ele>939</ele>
        <time>2021-03-23T13:27:22Z</time>
      </trkpt>
      <trkpt lat="44.72499" lon="5.24107">
        <ele>943</ele>
        <time>2021-03-23T13:27:46Z</time>
      </trkpt>
      <trkpt lat="44.72535" lon="5.24019">
        <ele>952</ele>
        <time>2021-03-23T13:29:23Z</time>
      </trkpt>
      <trkpt lat="44.72553" lon="5.2396">
        <ele>955</ele>
        <time>2021-03-23T13:30:23Z</time>
      </trkpt>
      <trkpt lat="44.72565" lon="5.23945">
        <ele>958</ele>
        <time>2021-03-23T13:30:45Z</time>
      </trkpt>
      <trkpt lat="44.72593" lon="5.23926">
        <ele>964</ele>
        <time>2021-03-23T13:31:26Z</time>
      </trkpt>
      <trkpt lat="44.72621" lon="5.23916">
        <ele>968</ele>
        <time>2021-03-23T13:32:05Z</time>
      </trkpt>
      <trkpt lat="44.72631" lon="5.23905">
        <ele>968</ele>
        <time>2021-03-23T13:32:22Z</time>
      </trkpt>
      <trkpt lat="44.72658" lon="5.23894">
        <ele>971</ele>
        <time>2021-03-23T13:32:59Z</time>
      </trkpt>
      <trkpt lat="44.7269" lon="5.23902">
        <ele>976</ele>
        <time>2021-03-23T13:33:43Z</time>
      </trkpt>
      <trkpt lat="44.72717" lon="5.23916">
        <ele>978</ele>
        <time>2021-03-23T13:34:21Z</time>
      </trkpt>
      <trkpt lat="44.72731" lon="5.23912">
        <ele>981</ele>
        <time>2021-03-23T13:34:40Z</time>
      </trkpt>
      <trkpt lat="44.72751" lon="5.23918">
        <ele>982</ele>
        <time>2021-03-23T13:35:07Z</time>
      </trkpt>
      <trkpt lat="44.72825" lon="5.23975">
        <ele>972</ele>
        <time>2021-03-23T13:37:00Z</time>
      </trkpt>
      <trkpt lat="44.72873" lon="5.23978">
        <ele>977</ele>
        <time>2021-03-23T13:38:04Z</time>
      </trkpt>
      <trkpt lat="44.7289" lon="5.23987">
        <ele>976</ele>
        <time>2021-03-23T13:38:28Z</time>
      </trkpt>
      <trkpt lat="44.72902" lon="5.24011">
        <ele>970</ele>
        <time>2021-03-23T13:38:56Z</time>
      </trkpt>
      <trkpt lat="44.72958" lon="5.24041">
        <ele>968</ele>
        <time>2021-03-23T13:40:16Z</time>
      </trkpt>
      <trkpt lat="44.72983" lon="5.24061">
        <ele>967</ele>
        <time>2021-03-23T13:40:54Z</time>
      </trkpt>
      <trkpt lat="44.72994" lon="5.2412">
        <ele>964</ele>
        <time>2021-03-23T13:41:52Z</time>
      </trkpt>
      <trkpt lat="44.72973" lon="5.24198">
        <ele>952</ele>
        <time>2021-03-23T13:43:11Z</time>
      </trkpt>
      <trkpt lat="44.72977" lon="5.24266">
        <ele>944</ele>
        <time>2021-03-23T13:44:16Z</time>
      </trkpt>
      <trkpt lat="44.73016" lon="5.24307">
        <ele>943</ele>
        <time>2021-03-23T13:45:21Z</time>
      </trkpt>
      <trkpt lat="44.73089" lon="5.24341">
        <ele>940</ele>
        <time>2021-03-23T13:47:04Z</time>
      </trkpt>
      <trkpt lat="44.73099" lon="5.24355">
        <ele>935</ele>
        <time>2021-03-23T13:47:22Z</time>
      </trkpt>
      <trkpt lat="44.7311" lon="5.24382">
        <ele>928</ele>
        <time>2021-03-23T13:47:52Z</time>
      </trkpt>
      <trkpt lat="44.73144" lon="5.24408">
        <ele>921</ele>
        <time>2021-03-23T13:48:44Z</time>
      </trkpt>
      <trkpt lat="44.73171" lon="5.24438">
        <ele>914</ele>
        <time>2021-03-23T13:49:30Z</time>
      </trkpt>
      <trkpt lat="44.73183" lon="5.24446">
        <ele>910</ele>
        <time>2021-03-23T13:49:47Z</time>
      </trkpt>
      <trkpt lat="44.73227" lon="5.24515">
        <ele>898</ele>
        <time>2021-03-23T13:51:15Z</time>
      </trkpt>
      <trkpt lat="44.73235" lon="5.24516">
        <ele>898</ele>
        <time>2021-03-23T13:51:26Z</time>
      </trkpt>
      <trkpt lat="44.73242" lon="5.24506">
        <ele>901</ele>
        <time>2021-03-23T13:51:39Z</time>
      </trkpt>
      <trkpt lat="44.73249" lon="5.24467">
        <ele>902</ele>
        <time>2021-03-23T13:52:17Z</time>
      </trkpt>
      <trkpt lat="44.73233" lon="5.24362">
        <ele>904</ele>
        <time>2021-03-23T13:53:59Z</time>
      </trkpt>
      <trkpt lat="44.73233" lon="5.24349">
        <ele>903</ele>
        <time>2021-03-23T13:54:11Z</time>
      </trkpt>
      <trkpt lat="44.73237" lon="5.24344">
        <ele>902</ele>
        <time>2021-03-23T13:54:19Z</time>
      </trkpt>
      <trkpt lat="44.73299" lon="5.24439">
        <ele>883</ele>
        <time>2021-03-23T13:56:21Z</time>
      </trkpt>
      <trkpt lat="44.73307" lon="5.24454">
        <ele>880</ele>
        <time>2021-03-23T13:56:39Z</time>
      </trkpt>
      <trkpt lat="44.73313" lon="5.2448">
        <ele>878</ele>
        <time>2021-03-23T13:57:05Z</time>
      </trkpt>
      <trkpt lat="44.73319" lon="5.2448">
        <ele>876</ele>
        <time>2021-03-23T13:57:13Z</time>
      </trkpt>
      <trkpt lat="44.7333" lon="5.24465">
        <ele>872</ele>
        <time>2021-03-23T13:57:33Z</time>
      </trkpt>
      <trkpt lat="44.73336" lon="5.24425">
        <ele>870</ele>
        <time>2021-03-23T13:58:12Z</time>
      </trkpt>
      <trkpt lat="44.73344" lon="5.24426">
        <ele>866</ele>
        <time>2021-03-23T13:58:22Z</time>
      </trkpt>
      <trkpt lat="44.7335" lon="5.24435">
        <ele>863</ele>
        <time>2021-03-23T13:58:34Z</time>
      </trkpt>
      <trkpt lat="44.73351" lon="5.24455">
        <ele>862</ele>
        <time>2021-03-23T13:58:53Z</time>
      </trkpt>
      <trkpt lat="44.73338" lon="5.24508">
        <ele>867</ele>
        <time>2021-03-23T13:59:46Z</time>
      </trkpt>
      <trkpt lat="44.73339" lon="5.24545">
        <ele>868</ele>
        <time>2021-03-23T14:00:21Z</time>
      </trkpt>
      <trkpt lat="44.73354" lon="5.24589">
        <ele>860</ele>
        <time>2021-03-23T14:01:08Z</time>
      </trkpt>
      <trkpt lat="44.73403" lon="5.24673">
        <ele>838</ele>
        <time>2021-03-23T14:02:51Z</time>
      </trkpt>
      <trkpt lat="44.734" lon="5.24723">
        <ele>843</ele>
        <time>2021-03-23T14:03:38Z</time>
      </trkpt>
      <trkpt lat="44.73404" lon="5.24769">
        <ele>841</ele>
        <time>2021-03-23T14:04:22Z</time>
      </trkpt>
      <trkpt lat="44.73385" lon="5.24861">
        <ele>839</ele>
        <time>2021-03-23T14:05:53Z</time>
      </trkpt>
      <trkpt lat="44.73394" lon="5.24903">
        <ele>835</ele>
        <time>2021-03-23T14:06:35Z</time>
      </trkpt>
      <trkpt lat="44.73413" lon="5.24938">
        <ele>834</ele>
        <time>2021-03-23T14:07:16Z</time>
      </trkpt>
      <trkpt lat="44.73439" lon="5.24965">
        <ele>828</ele>
        <time>2021-03-23T14:08:00Z</time>
      </trkpt>
      <trkpt lat="44.73463" lon="5.24999">
        <ele>825</ele>
        <time>2021-03-23T14:08:45Z</time>
      </trkpt>
      <trkpt lat="44.73506" lon="5.25019">
        <ele>816</ele>
        <time>2021-03-23T14:09:45Z</time>
      </trkpt>
      <trkpt lat="44.73548" lon="5.25016">
        <ele>815</ele>
        <time>2021-03-23T14:10:42Z</time>
      </trkpt>
      <trkpt lat="44.73568" lon="5.2503">
        <ele>814</ele>
        <time>2021-03-23T14:11:11Z</time>
      </trkpt>
      <trkpt lat="44.73589" lon="5.25057">
        <ele>814</ele>
        <time>2021-03-23T14:11:49Z</time>
      </trkpt>
      <trkpt lat="44.73591" lon="5.25065">
        <ele>814</ele>
        <time>2021-03-23T14:11:57Z</time>
      </trkpt>
      <trkpt lat="44.7358" lon="5.25094">
        <ele>816</ele>
        <time>2021-03-23T14:12:28Z</time>
      </trkpt>
      <trkpt lat="44.73574" lon="5.25133">
        <ele>811</ele>
        <time>2021-03-23T14:13:06Z</time>
      </trkpt>
      <trkpt lat="44.73583" lon="5.25156">
        <ele>812</ele>
        <time>2021-03-23T14:13:31Z</time>
      </trkpt>
      <trkpt lat="44.73597" lon="5.25173">
        <ele>810</ele>
        <time>2021-03-23T14:13:56Z</time>
      </trkpt>
      <trkpt lat="44.73595" lon="5.25175">
        <ele>809</ele>
        <time>2021-03-23T14:13:59Z</time>
      </trkpt>
      <trkpt lat="44.73595" lon="5.25171">
        <ele>810</ele>
        <time>2021-03-23T14:14:03Z</time>
      </trkpt>
      <trkpt lat="44.73588" lon="5.25169">
        <ele>810</ele>
        <time>2021-03-23T14:14:12Z</time>
      </trkpt>
      <trkpt lat="44.73577" lon="5.25157">
        <ele>809</ele>
        <time>2021-03-23T14:14:31Z</time>
      </trkpt>
      <trkpt lat="44.73571" lon="5.25138">
        <ele>809</ele>
        <time>2021-03-23T14:14:51Z</time>
      </trkpt>
      <trkpt lat="44.7357" lon="5.25122">
        <ele>811</ele>
        <time>2021-03-23T14:15:06Z</time>
      </trkpt>
      <trkpt lat="44.73577" lon="5.251">
        <ele>815</ele>
        <time>2021-03-23T14:15:29Z</time>
      </trkpt>
      <trkpt lat="44.73573" lon="5.25087">
        <ele>816</ele>
        <time>2021-03-23T14:15:42Z</time>
      </trkpt>
      <trkpt lat="44.73542" lon="5.25061">
        <ele>814</ele>
        <time>2021-03-23T14:16:30Z</time>
      </trkpt>
      <trkpt lat="44.73524" lon="5.25062">
        <ele>813</ele>
        <time>2021-03-23T14:16:54Z</time>
      </trkpt>
      <trkpt lat="44.73476" lon="5.25096">
        <ele>802</ele>
        <time>2021-03-23T14:18:06Z</time>
      </trkpt>
      <trkpt lat="44.73434" lon="5.25108">
        <ele>790</ele>
        <time>2021-03-23T14:19:03Z</time>
      </trkpt>
      <trkpt lat="44.73414" lon="5.25107">
        <ele>787</ele>
        <time>2021-03-23T14:19:30Z</time>
      </trkpt>
      <trkpt lat="44.73402" lon="5.25096">
        <ele>790</ele>
        <time>2021-03-23T14:19:49Z</time>
      </trkpt>
      <trkpt lat="44.73359" lon="5.25086">
        <ele>782</ele>
        <time>2021-03-23T14:20:47Z</time>
      </trkpt>
      <trkpt lat="44.73326" lon="5.25061">
        <ele>781</ele>
        <time>2021-03-23T14:21:37Z</time>
      </trkpt>
      <trkpt lat="44.73314" lon="5.25029">
        <ele>787</ele>
        <time>2021-03-23T14:22:12Z</time>
      </trkpt>
      <trkpt lat="44.73305" lon="5.25027">
        <ele>783</ele>
        <time>2021-03-23T14:22:24Z</time>
      </trkpt>
      <trkpt lat="44.73296" lon="5.25012">
        <ele>783</ele>
        <time>2021-03-23T14:22:42Z</time>
      </trkpt>
      <trkpt lat="44.73284" lon="5.25008">
        <ele>778</ele>
        <time>2021-03-23T14:22:59Z</time>
      </trkpt>
      <trkpt lat="44.73264" lon="5.24976">
        <ele>776</ele>
        <time>2021-03-23T14:23:39Z</time>
      </trkpt>
      <trkpt lat="44.73251" lon="5.24966">
        <ele>772</ele>
        <time>2021-03-23T14:23:59Z</time>
      </trkpt>
      <trkpt lat="44.73226" lon="5.24928">
        <ele>769</ele>
        <time>2021-03-23T14:24:48Z</time>
      </trkpt>
      <trkpt lat="44.73215" lon="5.24921">
        <ele>765</ele>
        <time>2021-03-23T14:25:04Z</time>
      </trkpt>
      <trkpt lat="44.73203" lon="5.24906">
        <ele>763</ele>
        <time>2021-03-23T14:25:26Z</time>
      </trkpt>
      <trkpt lat="44.73172" lon="5.24856">
        <ele>759</ele>
        <time>2021-03-23T14:26:29Z</time>
      </trkpt>
      <trkpt lat="44.73164" lon="5.24823">
        <ele>764</ele>
        <time>2021-03-23T14:27:02Z</time>
      </trkpt>
      <trkpt lat="44.73158" lon="5.24815">
        <ele>763</ele>
        <time>2021-03-23T14:27:13Z</time>
      </trkpt>
      <trkpt lat="44.73148" lon="5.24812">
        <ele>760</ele>
        <time>2021-03-23T14:27:26Z</time>
      </trkpt>
      <trkpt lat="44.73096" lon="5.24771">
        <ele>752</ele>
        <time>2021-03-23T14:28:46Z</time>
      </trkpt>
      <trkpt lat="44.72972" lon="5.24741">
        <ele>720</ele>
        <time>2021-03-23T14:31:34Z</time>
      </trkpt>
      <trkpt lat="44.72936" lon="5.24721">
        <ele>713</ele>
        <time>2021-03-23T14:32:25Z</time>
      </trkpt>
      <trkpt lat="44.7293" lon="5.2471">
        <ele>715</ele>
        <time>2021-03-23T14:32:39Z</time>
      </trkpt>
      <trkpt lat="44.7293" lon="5.2472">
        <ele>711</ele>
        <time>2021-03-23T14:32:48Z</time>
      </trkpt>
      <trkpt lat="44.72952" lon="5.24754">
        <ele>707</ele>
        <time>2021-03-23T14:33:32Z</time>
      </trkpt>
      <trkpt lat="44.72989" lon="5.248">
        <ele>704</ele>
        <time>2021-03-23T14:34:37Z</time>
      </trkpt>
      <trkpt lat="44.73041" lon="5.24852">
        <ele>702</ele>
        <time>2021-03-23T14:36:03Z</time>
      </trkpt>
      <trkpt lat="44.73069" lon="5.24895">
        <ele>698</ele>
        <time>2021-03-23T14:36:58Z</time>
      </trkpt>
      <trkpt lat="44.73083" lon="5.24934">
        <ele>693</ele>
        <time>2021-03-23T14:37:39Z</time>
      </trkpt>
      <trkpt lat="44.73108" lon="5.25032">
        <ele>681</ele>
        <time>2021-03-23T14:39:18Z</time>
      </trkpt>
      <trkpt lat="44.73125" lon="5.25079">
        <ele>676</ele>
        <time>2021-03-23T14:40:08Z</time>
      </trkpt>
      <trkpt lat="44.73149" lon="5.25125">
        <ele>674</ele>
        <time>2021-03-23T14:41:02Z</time>
      </trkpt>
      <trkpt lat="44.7316" lon="5.25228">
        <ele>652</ele>
        <time>2021-03-23T14:42:41Z</time>
      </trkpt>
      <trkpt lat="44.73185" lon="5.2526">
        <ele>649</ele>
        <time>2021-03-23T14:43:26Z</time>
      </trkpt>
      <trkpt lat="44.73198" lon="5.25266">
        <ele>650</ele>
        <time>2021-03-23T14:43:44Z</time>
      </trkpt>
      <trkpt lat="44.73199" lon="5.25276">
        <ele>646</ele>
        <time>2021-03-23T14:43:54Z</time>
      </trkpt>
      <trkpt lat="44.73193" lon="5.25279">
        <ele>643</ele>
        <time>2021-03-23T14:44:02Z</time>
      </trkpt>
      <trkpt lat="44.73171" lon="5.25272">
        <ele>641</ele>
        <time>2021-03-23T14:44:32Z</time>
      </trkpt>
      <trkpt lat="44.73134" lon="5.25268">
        <ele>631</ele>
        <time>2021-03-23T14:45:22Z</time>
      </trkpt>
      <trkpt lat="44.73079" lon="5.25222">
        <ele>625</ele>
        <time>2021-03-23T14:46:47Z</time>
      </trkpt>
      <trkpt lat="44.7305" lon="5.25187">
        <ele>622</ele>
        <time>2021-03-23T14:47:38Z</time>
      </trkpt>
      <trkpt lat="44.73034" lon="5.25176">
        <ele>618</ele>
        <time>2021-03-23T14:48:02Z</time>
      </trkpt>
      <trkpt lat="44.73013" lon="5.25153">
        <ele>614</ele>
        <time>2021-03-23T14:48:38Z</time>
      </trkpt>
      <trkpt lat="44.72994" lon="5.25147">
        <ele>608</ele>
        <time>2021-03-23T14:49:04Z</time>
      </trkpt>
      <trkpt lat="44.72921" lon="5.25087">
        <ele>599</ele>
        <time>2021-03-23T14:50:56Z</time>
      </trkpt>
      <trkpt lat="44.72897" lon="5.25076">
        <ele>595</ele>
        <time>2021-03-23T14:51:30Z</time>
      </trkpt>
      <trkpt lat="44.72863" lon="5.25068">
        <ele>588</ele>
        <time>2021-03-23T14:52:16Z</time>
      </trkpt>
      <trkpt lat="44.72847" lon="5.25059">
        <ele>586</ele>
        <time>2021-03-23T14:52:39Z</time>
      </trkpt>
      <trkpt lat="44.72826" lon="5.25057">
        <ele>580</ele>
        <time>2021-03-23T14:53:07Z</time>
      </trkpt>
      <trkpt lat="44.72816" lon="5.25052">
        <ele>578</ele>
        <time>2021-03-23T14:53:21Z</time>
      </trkpt>
      <trkpt lat="44.72812" lon="5.25056">
        <ele>576</ele>
        <time>2021-03-23T14:53:28Z</time>
      </trkpt>
      <trkpt lat="44.72816" lon="5.25072">
        <ele>574</ele>
        <time>2021-03-23T14:53:44Z</time>
      </trkpt>
      <trkpt lat="44.72833" lon="5.25103">
        <ele>573</ele>
        <time>2021-03-23T14:54:21Z</time>
      </trkpt>
      <trkpt lat="44.72861" lon="5.25178">
        <ele>566</ele>
        <time>2021-03-23T14:55:41Z</time>
      </trkpt>
      <trkpt lat="44.72873" lon="5.25232">
        <ele>558</ele>
        <time>2021-03-23T14:56:35Z</time>
      </trkpt>
      <trkpt lat="44.72901" lon="5.25286">
        <ele>550</ele>
        <time>2021-03-23T14:57:38Z</time>
      </trkpt>
      <trkpt lat="44.72899" lon="5.25296">
        <ele>546</ele>
        <time>2021-03-23T14:57:48Z</time>
      </trkpt>
      <trkpt lat="44.72886" lon="5.25298">
        <ele>543</ele>
        <time>2021-03-23T14:58:06Z</time>
      </trkpt>
      <trkpt lat="44.72866" lon="5.25286">
        <ele>543</ele>
        <time>2021-03-23T14:58:35Z</time>
      </trkpt>
      <trkpt lat="44.72847" lon="5.2528">
        <ele>540</ele>
        <time>2021-03-23T14:59:01Z</time>
      </trkpt>
      <trkpt lat="44.72829" lon="5.25247">
        <ele>544</ele>
        <time>2021-03-23T14:59:40Z</time>
      </trkpt>
      <trkpt lat="44.72805" lon="5.25248">
        <ele>540</ele>
        <time>2021-03-23T15:00:12Z</time>
      </trkpt>
      <trkpt lat="44.72743" lon="5.2523">
        <ele>532</ele>
        <time>2021-03-23T15:01:37Z</time>
      </trkpt>
      <trkpt lat="44.72732" lon="5.25219">
        <ele>532</ele>
        <time>2021-03-23T15:01:55Z</time>
      </trkpt>
      <trkpt lat="44.72716" lon="5.25176">
        <ele>536</ele>
        <time>2021-03-23T15:02:41Z</time>
      </trkpt>
      <trkpt lat="44.72707" lon="5.25244">
        <ele>523</ele>
        <time>2021-03-23T15:03:46Z</time>
      </trkpt>
      <trkpt lat="44.72708" lon="5.2528">
        <ele>517</ele>
        <time>2021-03-23T15:04:20Z</time>
      </trkpt>
      <trkpt lat="44.7274" lon="5.25331">
        <ele>514</ele>
        <time>2021-03-23T15:05:25Z</time>
      </trkpt>
      <trkpt lat="44.72748" lon="5.25354">
        <ele>510</ele>
        <time>2021-03-23T15:05:49Z</time>
      </trkpt>
      <trkpt lat="44.72756" lon="5.25361">
        <ele>509</ele>
        <time>2021-03-23T15:06:02Z</time>
      </trkpt>
      <trkpt lat="44.72768" lon="5.25364">
        <ele>509</ele>
        <time>2021-03-23T15:06:18Z</time>
      </trkpt>
      <trkpt lat="44.72792" lon="5.25361">
        <ele>512</ele>
        <time>2021-03-23T15:06:50Z</time>
      </trkpt>
      <trkpt lat="44.72795" lon="5.25369">
        <ele>510</ele>
        <time>2021-03-23T15:06:59Z</time>
      </trkpt>
      <trkpt lat="44.72784" lon="5.25376">
        <ele>507</ele>
        <time>2021-03-23T15:07:15Z</time>
      </trkpt>
      <trkpt lat="44.72758" lon="5.25417">
        <ele>495</ele>
        <time>2021-03-23T15:08:07Z</time>
      </trkpt>
      <trkpt lat="44.72717" lon="5.25431">
        <ele>489</ele>
        <time>2021-03-23T15:09:03Z</time>
      </trkpt>
      <trkpt lat="44.72682" lon="5.25431">
        <ele>486</ele>
        <time>2021-03-23T15:09:50Z</time>
      </trkpt>
      <trkpt lat="44.72666" lon="5.25427">
        <ele>485</ele>
        <time>2021-03-23T15:10:12Z</time>
      </trkpt>
      <trkpt lat="44.72655" lon="5.2541">
        <ele>487</ele>
        <time>2021-03-23T15:10:33Z</time>
      </trkpt>
      <trkpt lat="44.72656" lon="5.25395">
        <ele>490</ele>
        <time>2021-03-23T15:10:48Z</time>
      </trkpt>
      <trkpt lat="44.72653" lon="5.25394">
        <ele>490</ele>
        <time>2021-03-23T15:10:52Z</time>
      </trkpt>
      <trkpt lat="44.72641" lon="5.25409">
        <ele>486</ele>
        <time>2021-03-23T15:11:13Z</time>
      </trkpt>
      <trkpt lat="44.72619" lon="5.25414">
        <ele>485</ele>
        <time>2021-03-23T15:11:43Z</time>
      </trkpt>
      <trkpt lat="44.72577" lon="5.25484">
        <ele>474</ele>
        <time>2021-03-23T15:13:10Z</time>
      </trkpt>
      <trkpt lat="44.72563" lon="5.25495">
        <ele>473</ele>
        <time>2021-03-23T15:13:31Z</time>
      </trkpt>
      <trkpt lat="44.72481" lon="5.25474">
        <ele>475</ele>
        <time>2021-03-23T15:15:22Z</time>
      </trkpt>
      <trkpt lat="44.72438" lon="5.25471">
        <ele>476</ele>
        <time>2021-03-23T15:16:20Z</time>
      </trkpt>
      <trkpt lat="44.72406" lon="5.25484">
        <ele>474</ele>
        <time>2021-03-23T15:17:04Z</time>
      </trkpt>
      <trkpt lat="44.72386" lon="5.25483">
        <ele>475</ele>
        <time>2021-03-23T15:17:31Z</time>
      </trkpt>
      <trkpt lat="44.72345" lon="5.25494">
        <ele>474</ele>
        <time>2021-03-23T15:18:27Z</time>
      </trkpt>
      <trkpt lat="44.72281" lon="5.25487">
        <ele>477</ele>
        <time>2021-03-23T15:19:52Z</time>
      </trkpt>
      <trkpt lat="44.7227" lon="5.25495">
        <ele>475</ele>
        <time>2021-03-23T15:20:09Z</time>
      </trkpt>
      <trkpt lat="44.72233" lon="5.25508">
        <ele>472</ele>
        <time>2021-03-23T15:21:00Z</time>
      </trkpt>
      <trkpt lat="44.72217" lon="5.25507">
        <ele>471</ele>
        <time>2021-03-23T15:21:21Z</time>
      </trkpt>
      <trkpt lat="44.72194" lon="5.25499">
        <ele>470</ele>
        <time>2021-03-23T15:21:53Z</time>
      </trkpt>
      <trkpt lat="44.72157" lon="5.25477">
        <ele>470</ele>
        <time>2021-03-23T15:22:46Z</time>
      </trkpt>
      <trkpt lat="44.72103" lon="5.25454">
        <ele>466</ele>
        <time>2021-03-23T15:24:02Z</time>
      </trkpt>
      <trkpt lat="44.72085" lon="5.25439">
        <ele>466</ele>
        <time>2021-03-23T15:24:30Z</time>
      </trkpt>
      <trkpt lat="44.72054" lon="5.25404">
        <ele>464</ele>
        <time>2021-03-23T15:25:23Z</time>
      </trkpt>
      <trkpt lat="44.72041" lon="5.25378">
        <ele>464</ele>
        <time>2021-03-23T15:25:53Z</time>
      </trkpt>
      <trkpt lat="44.72005" lon="5.25351">
        <ele>459</ele>
        <time>2021-03-23T15:26:47Z</time>
      </trkpt>
      <trkpt lat="44.71953" lon="5.25266">
        <ele>464</ele>
        <time>2021-03-23T15:28:34Z</time>
      </trkpt>
      <trkpt lat="44.71937" lon="5.25263">
        <ele>463</ele>
        <time>2021-03-23T15:28:55Z</time>
      </trkpt>
      <trkpt lat="44.71935" lon="5.25266">
        <ele>462</ele>
        <time>2021-03-23T15:28:59Z</time>
      </trkpt>
      <trkpt lat="44.7193" lon="5.2526">
        <ele>462</ele>
        <time>2021-03-23T15:29:08Z</time>
      </trkpt>
      <trkpt lat="44.71917" lon="5.25216">
        <ele>467</ele>
        <time>2021-03-23T15:29:53Z</time>
      </trkpt>
      <trkpt lat="44.71907" lon="5.25216">
        <ele>468</ele>
        <time>2021-03-23T15:30:06Z</time>
      </trkpt>
      <trkpt lat="44.71895" lon="5.2523">
        <ele>467</ele>
        <time>2021-03-23T15:30:27Z</time>
      </trkpt>
      <trkpt lat="44.71891" lon="5.25242">
        <ele>466</ele>
        <time>2021-03-23T15:30:40Z</time>
      </trkpt>
      <trkpt lat="44.7189" lon="5.25272">
        <ele>462</ele>
        <time>2021-03-23T15:31:08Z</time>
      </trkpt>
      <trkpt lat="44.71869" lon="5.25298">
        <ele>462</ele>
        <time>2021-03-23T15:31:46Z</time>
      </trkpt>
      <trkpt lat="44.71836" lon="5.25381">
        <ele>459</ele>
        <time>2021-03-23T15:33:16Z</time>
      </trkpt>
      <trkpt lat="44.71831" lon="5.25387">
        <ele>458</ele>
        <time>2021-03-23T15:33:25Z</time>
      </trkpt>
      <trkpt lat="44.71822" lon="5.25387">
        <ele>456</ele>
        <time>2021-03-23T15:33:37Z</time>
      </trkpt>
      <trkpt lat="44.71812" lon="5.25375">
        <ele>454</ele>
        <time>2021-03-23T15:33:54Z</time>
      </trkpt>
      <trkpt lat="44.71797" lon="5.25326">
        <ele>455</ele>
        <time>2021-03-23T15:34:45Z</time>
      </trkpt>
      <trkpt lat="44.71795" lon="5.25305">
        <ele>457</ele>
        <time>2021-03-23T15:35:05Z</time>
      </trkpt>
      <trkpt lat="44.71804" lon="5.25276">
        <ele>462</ele>
        <time>2021-03-23T15:35:35Z</time>
      </trkpt>
      <trkpt lat="44.71802" lon="5.25262">
        <ele>463</ele>
        <time>2021-03-23T15:35:48Z</time>
      </trkpt>
      <trkpt lat="44.71796" lon="5.25246">
        <ele>463</ele>
        <time>2021-03-23T15:36:05Z</time>
      </trkpt>
      <trkpt lat="44.7178" lon="5.25232">
        <ele>462</ele>
        <time>2021-03-23T15:36:31Z</time>
      </trkpt>
      <trkpt lat="44.71764" lon="5.25209">
        <ele>464</ele>
        <time>2021-03-23T15:37:01Z</time>
      </trkpt>
      <trkpt lat="44.71758" lon="5.25209">
        <ele>462</ele>
        <time>2021-03-23T15:37:09Z</time>
      </trkpt>
      <trkpt lat="44.71744" lon="5.25237">
        <ele>454</ele>
        <time>2021-03-23T15:37:42Z</time>
      </trkpt>
      <trkpt lat="44.71736" lon="5.25242">
        <ele>453</ele>
        <time>2021-03-23T15:37:53Z</time>
      </trkpt>
      <trkpt lat="44.71712" lon="5.25223">
        <ele>456</ele>
        <time>2021-03-23T15:38:30Z</time>
      </trkpt>
      <trkpt lat="44.71676" lon="5.25213">
        <ele>457</ele>
        <time>2021-03-23T15:39:19Z</time>
      </trkpt>
      <trkpt lat="44.71641" lon="5.25214">
        <ele>457</ele>
        <time>2021-03-23T15:40:06Z</time>
      </trkpt>
      <trkpt lat="44.71573" lon="5.25238">
        <ele>455</ele>
        <time>2021-03-23T15:41:39Z</time>
      </trkpt>
      <trkpt lat="44.71551" lon="5.2523">
        <ele>455</ele>
        <time>2021-03-23T15:42:10Z</time>
      </trkpt>
      <trkpt lat="44.71488" lon="5.2519">
        <ele>455</ele>
        <time>2021-03-23T15:43:42Z</time>
      </trkpt>
      <trkpt lat="44.71466" lon="5.2517">
        <ele>454</ele>
        <time>2021-03-23T15:44:17Z</time>
      </trkpt>
      <trkpt lat="44.71379" lon="5.25011">
        <ele>450</ele>
        <time>2021-03-23T15:47:27Z</time>
      </trkpt>
      <trkpt lat="44.71334" lon="5.24961">
        <ele>448</ele>
        <time>2021-03-23T15:48:44Z</time>
      </trkpt>
      <trkpt lat="44.71305" lon="5.24937">
        <ele>448</ele>
        <time>2021-03-23T15:49:28Z</time>
      </trkpt>
      <trkpt lat="44.71296" lon="5.24949">
        <ele>447</ele>
        <time>2021-03-23T15:49:45Z</time>
      </trkpt>
      <trkpt lat="44.71287" lon="5.24978">
        <ele>444</ele>
        <time>2021-03-23T15:50:15Z</time>
      </trkpt>
      <trkpt lat="44.71273" lon="5.24989">
        <ele>442</ele>
        <time>2021-03-23T15:50:36Z</time>
      </trkpt>
      <trkpt lat="44.71236" lon="5.24986">
        <ele>441</ele>
        <time>2021-03-23T15:51:26Z</time>
      </trkpt>
      <trkpt lat="44.71219" lon="5.2499">
        <ele>441</ele>
        <time>2021-03-23T15:51:49Z</time>
      </trkpt>
      <trkpt lat="44.71174" lon="5.24989">
        <ele>442</ele>
        <time>2021-03-23T15:52:49Z</time>
      </trkpt>
      <trkpt lat="44.71154" lon="5.24984">
        <ele>441</ele>
        <time>2021-03-23T15:53:16Z</time>
      </trkpt>
      <trkpt lat="44.71121" lon="5.24986">
        <ele>438</ele>
        <time>2021-03-23T15:54:00Z</time>
      </trkpt>
      <trkpt lat="44.71093" lon="5.24983">
        <ele>435</ele>
        <time>2021-03-23T15:54:38Z</time>
      </trkpt>
      <trkpt lat="44.71091" lon="5.24989">
        <ele>435</ele>
        <time>2021-03-23T15:54:44Z</time>
      </trkpt>
      <trkpt lat="44.711" lon="5.25006">
        <ele>436</ele>
        <time>2021-03-23T15:55:04Z</time>
      </trkpt>
      <trkpt lat="44.71106" lon="5.25052">
        <ele>434</ele>
        <time>2021-03-23T15:55:48Z</time>
      </trkpt>
      <trkpt lat="44.71104" lon="5.25102">
        <ele>430</ele>
        <time>2021-03-23T15:56:36Z</time>
      </trkpt>
      <trkpt lat="44.71119" lon="5.25113">
        <ele>430</ele>
        <time>2021-03-23T15:56:58Z</time>
      </trkpt>
      <trkpt lat="44.71118" lon="5.25117">
        <ele>429</ele>
        <time>2021-03-23T15:57:02Z</time>
      </trkpt>
      <trkpt lat="44.71119" lon="5.25113">
        <ele>430</ele>
        <time>2021-03-23T15:57:06Z</time>
      </trkpt>
      <trkpt lat="44.71121" lon="5.25119">
        <ele>429</ele>
        <time>2021-03-23T15:57:13Z</time>
      </trkpt>
      <trkpt lat="44.71119" lon="5.25116">
        <ele>430</ele>
        <time>2021-03-23T15:57:17Z</time>
      </trkpt>
    </trkseg>
  </trk>
</gpx>